Terminal Aerodrome Forecast
Issued by NWS Cleveland, OH

Home | Current Version | Previous Version | Graphics & Text | Print | Product List | Glossary On
Versions: 1 2 3 4 5 6 7 8 9 10 11 12 13 14 15
000
FTUS41 KCLE 211123
TAFCAK
TAF
KCAK 211123Z 2112/2212 20014G20KT P6SM SCT050 BKN080
     FM211300 25012KT 6SM -SHRA BKN025 OVC060
     FM211500 30012KT 4SM -SHRA BR OVC007
     FM212000 35011KT 6SM -SHRA BR SCT010 OVC020
     FM220600 03009KT 4SM -FZRAPL BR OVC014=

USA.gov is the U.S. government's official web portal to all federal, state and local government web resources and services.